createdAt,value
2022-09-06T00:01:58.418Z,67.48
2022-09-06T00:07:30.274Z,67.43
2022-09-06T00:13:01.920Z,67.06
2022-09-06T00:18:33.608Z,66.80
2022-09-06T00:24:05.488Z,66.56
2022-09-06T00:29:37.440Z,66.50
2022-09-06T00:35:09.029Z,67.17
2022-09-06T00:40:40.893Z,68.58
2022-09-06T00:46:12.702Z,67.73
2022-09-06T00:51:44.181Z,68.08
2022-09-06T00:57:15.955Z,68.14
2022-09-06T01:02:47.872Z,68.24
2022-09-06T01:08:19.680Z,68.44
2022-09-06T01:13:52.301Z,68.32
2022-09-06T01:19:24.125Z,67.91
2022-09-06T01:24:56.064Z,67.83
2022-09-06T01:30:27.460Z,68.00
2022-09-06T01:35:59.479Z,68.05
2022-09-06T01:41:31.343Z,68.12
2022-09-06T01:47:02.890Z,67.99
2022-09-06T01:52:34.724Z,67.87
2022-09-06T02:03:36.237Z,67.79
2022-09-06T02:09:07.910Z,67.71
2022-09-06T02:14:39.740Z,67.83
2022-09-06T02:20:11.383Z,68.21
2022-09-06T02:25:43.265Z,68.12
2022-09-06T02:31:15.010Z,67.97
2022-09-06T02:36:46.860Z,68.06
2022-09-06T02:42:18.602Z,68.46
2022-09-06T02:47:50.273Z,68.33
2022-09-06T02:53:22.287Z,68.27
2022-09-06T02:58:54.025Z,68.41
2022-09-06T03:04:25.898Z,68.50
2022-09-06T03:09:58.099Z,68.59
2022-09-06T03:15:29.637Z,68.57
2022-09-06T03:21:01.649Z,68.70
2022-09-06T03:26:33.681Z,68.75
2022-09-06T03:32:05.800Z,68.84
2022-09-06T03:37:37.622Z,68.91
2022-09-06T03:43:09.115Z,69.00
2022-09-06T03:48:41.187Z,68.90
2022-09-06T03:54:12.805Z,68.94
2022-09-06T03:59:44.890Z,68.95
2022-09-06T04:05:17.081Z,68.99
2022-09-06T04:10:49.228Z,68.92
2022-09-06T04:16:20.990Z,69.01
2022-09-06T04:21:52.577Z,69.04
2022-09-06T04:27:25.010Z,69.14
2022-09-06T04:32:56.626Z,69.16
2022-09-06T04:38:28.581Z,69.29
2022-09-06T04:44:00.273Z,69.28
2022-09-06T04:49:32.202Z,69.26
2022-09-06T04:55:03.897Z,69.37
2022-09-06T05:00:35.697Z,69.33
2022-09-06T05:06:07.342Z,69.37
2022-09-06T05:17:11.099Z,68.75
2022-09-06T05:22:42.901Z,68.26
2022-09-06T05:28:15.043Z,68.21
2022-09-06T05:33:46.995Z,68.22
2022-09-06T05:39:19.037Z,67.48
2022-09-06T05:44:50.874Z,67.16
2022-09-06T05:50:22.603Z,66.73
2022-09-06T05:55:54.798Z,66.66
2022-09-06T06:01:26.838Z,65.91
2022-09-06T06:06:58.588Z,65.56
2022-09-06T06:12:30.316Z,65.26
2022-09-06T06:18:02.354Z,65.18
2022-09-06T06:23:33.976Z,63.40
2022-09-06T06:29:06.251Z,61.79
2022-09-06T06:34:37.919Z,58.78
2022-09-06T06:40:10.015Z,57.69
2022-09-06T06:45:42.082Z,56.05
2022-09-06T06:51:13.524Z,54.95
2022-09-06T06:56:45.699Z,52.90
2022-09-06T07:02:17.520Z,52.10
2022-09-06T07:07:49.360Z,49.98
2022-09-06T07:13:23.251Z,49.24
2022-09-06T07:26:38.191Z,50.20
2022-09-06T07:37:41.750Z,51.52
2022-09-06T07:43:13.268Z,51.90
2022-09-06T07:48:45.212Z,53.03
2022-09-06T07:54:32.304Z,53.71
2022-09-06T07:59:48.700Z,55.04
2022-09-06T08:10:51.714Z,57.28
2022-09-06T08:16:23.249Z,57.48
2022-09-06T08:21:55.107Z,57.41
2022-09-06T08:27:27.218Z,57.40
2022-09-06T08:32:59.497Z,57.25
2022-09-06T08:38:30.950Z,57.19
2022-09-06T08:49:34.391Z,56.39
2022-09-06T08:55:06.308Z,55.85
2022-09-06T09:00:38.180Z,55.50
2022-09-06T09:06:10.165Z,54.09
2022-09-06T09:11:41.796Z,52.72
2022-09-06T09:17:13.255Z,49.93
2022-09-06T09:22:44.806Z,48.74
2022-09-06T09:28:16.440Z,48.57
2022-09-06T09:33:48.999Z,48.44
2022-09-06T09:39:20.591Z,48.29
2022-09-06T09:44:52.528Z,48.05
2022-09-06T09:50:24.021Z,46.20
2022-09-06T09:55:55.261Z,46.05
2022-09-06T10:01:26.996Z,45.34
2022-09-06T10:07:14.400Z,45.58
2022-09-06T10:12:30.912Z,46.12
2022-09-06T10:18:02.715Z,45.60
2022-09-06T10:29:05.697Z,45.20
2022-09-06T10:34:37.463Z,45.20
2022-09-06T10:40:09.397Z,45.33
2022-09-06T10:45:41.707Z,44.96
2022-09-06T10:51:13.545Z,44.92
2022-09-06T10:56:45.283Z,44.93
2022-09-06T11:02:17.414Z,45.08
2022-09-06T11:13:20.957Z,45.21
2022-09-06T11:18:52.657Z,44.86
2022-09-06T11:24:24.742Z,44.35
2022-09-06T11:29:56.860Z,44.29
2022-09-06T11:35:28.519Z,43.89
2022-09-06T11:41:00.234Z,43.79
2022-09-06T11:46:31.904Z,43.95
2022-09-06T11:52:03.214Z,42.90
2022-09-06T11:57:35.057Z,43.23
2022-09-06T12:08:38.736Z,43.27
2022-09-06T12:14:10.335Z,43.13
2022-09-06T12:19:44.339Z,42.86
2022-09-06T12:25:13.926Z,42.80
2022-09-06T12:30:45.953Z,43.18
2022-09-06T12:36:17.776Z,42.86
2022-09-06T12:41:49.341Z,41.79
2022-09-06T12:52:53.334Z,42.88
2022-09-06T12:58:24.834Z,43.30
2022-09-06T13:03:56.656Z,43.36
2022-09-06T13:09:28.496Z,43.22
2022-09-06T13:15:00.548Z,42.88
2022-09-06T13:20:32.441Z,42.37
2022-09-06T13:26:04.028Z,42.54
2022-09-06T13:31:35.874Z,42.42
2022-09-06T13:37:07.872Z,42.46
2022-09-06T13:42:39.427Z,41.89
2022-09-06T13:48:28.396Z,42.10
2022-09-06T13:53:43.021Z,42.70
2022-09-06T14:04:44.376Z,42.46
2022-09-06T14:10:16.312Z,42.52
2022-09-06T14:26:46.982Z,42.32
2022-09-06T14:32:22.365Z,42.60
2022-09-06T14:37:50.505Z,42.94
2022-09-06T14:43:22.261Z,42.53
2022-09-06T14:48:54.371Z,43.17
2022-09-06T14:54:29.274Z,43.51
2022-09-06T14:59:58.602Z,44.04
2022-09-06T15:05:30.509Z,44.48
2022-09-06T15:11:03.777Z,44.48
2022-09-06T15:16:35.603Z,44.56
2022-09-06T15:22:07.371Z,45.11
2022-09-06T15:27:39.134Z,45.06
2022-09-06T15:33:10.505Z,45.29
2022-09-06T15:44:11.505Z,44.82
2022-09-06T15:49:43.457Z,44.65
2022-09-06T15:55:15.271Z,44.85
2022-09-06T16:00:50.007Z,45.08
2022-09-06T16:06:26.901Z,45.28
2022-09-06T16:11:51.076Z,45.57
2022-09-06T16:28:22.424Z,47.09
2022-09-06T16:33:54.282Z,47.54
2022-09-06T16:39:25.813Z,48.10
2022-09-06T16:44:57.579Z,48.24
2022-09-06T16:50:29.465Z,48.62
2022-09-06T16:56:01.067Z,48.84
2022-09-06T17:01:33.071Z,49.24
2022-09-06T17:07:04.901Z,49.35
2022-09-06T17:12:37.453Z,49.64
2022-09-06T17:18:09.218Z,49.85
2022-09-06T17:34:39.742Z,50.05
2022-09-06T17:40:11.645Z,50.84
2022-09-06T17:45:43.238Z,51.89
2022-09-06T17:51:14.719Z,51.93
2022-09-06T17:56:46.479Z,52.28
2022-09-06T18:02:18.793Z,52.51
2022-09-06T18:07:50.641Z,52.89
2022-09-06T18:13:22.417Z,53.04
2022-09-06T18:21:14.447Z,0.00
2022-09-06T18:26:46.253Z,53.52
2022-09-06T18:37:49.734Z,53.88
2022-09-06T18:43:21.428Z,54.09
2022-09-06T18:48:53.127Z,54.80
2022-09-06T18:56:45.061Z,55.10
2022-09-06T19:02:17.114Z,55.29
2022-09-06T19:07:48.728Z,55.17
2022-09-06T19:13:20.670Z,55.31
2022-09-06T19:18:52.920Z,55.38
2022-09-06T19:29:56.655Z,55.69
2022-09-06T19:35:28.573Z,55.80
2022-09-06T19:41:00.210Z,56.02
2022-09-06T19:46:32.059Z,56.17
2022-09-06T19:52:03.618Z,56.59
2022-09-06T20:08:39.058Z,57.11
2022-09-06T20:14:11.181Z,57.28
2022-09-06T20:19:43.096Z,57.36
2022-09-06T20:25:14.892Z,59.17
2022-09-06T20:30:46.633Z,60.48
2022-09-06T20:36:20.787Z,59.95
2022-09-06T20:47:24.022Z,60.12
2022-09-06T20:52:55.664Z,61.05
2022-09-06T20:58:27.304Z,60.96
2022-09-06T21:03:59.078Z,61.77
2022-09-06T21:09:31.054Z,62.29
2022-09-06T21:20:34.529Z,62.23
2022-09-06T21:26:06.879Z,62.27
2022-09-06T21:31:38.942Z,62.19
2022-09-06T21:37:10.864Z,62.07
2022-09-06T21:42:42.651Z,62.07
2022-09-06T21:48:14.652Z,62.06
2022-09-06T21:53:46.232Z,62.02
2022-09-06T21:59:17.778Z,62.00
2022-09-06T22:04:49.377Z,62.19
2022-09-06T22:10:21.080Z,62.35
2022-09-06T22:15:52.980Z,62.36
2022-09-06T22:21:24.819Z,62.55
2022-09-06T22:26:56.732Z,63.01
2022-09-06T22:32:28.213Z,62.94
2022-09-06T22:38:00.177Z,62.96
2022-09-06T22:43:31.703Z,63.20
2022-09-06T22:49:03.563Z,63.28
2022-09-06T22:54:35.380Z,63.50
2022-09-06T23:00:07.129Z,63.42
2022-09-06T23:05:41.140Z,63.63
2022-09-06T23:11:12.894Z,63.83
2022-09-06T23:16:44.561Z,63.76
2022-09-06T23:22:16.620Z,63.86
2022-09-06T23:27:48.825Z,65.52
2022-09-06T23:38:52.026Z,65.22
2022-09-06T23:44:24.547Z,65.11
2022-09-06T23:49:57.983Z,65.09
2022-09-06T23:55:29.890Z,65.30
